createdAt,value
2022-10-19T00:03:23.223Z,87.24
2022-10-19T00:08:28.051Z,87.14
2022-10-19T00:13:31.308Z,87.13
2022-10-19T00:18:34.718Z,87.07
2022-10-19T00:23:38.906Z,87.07
2022-10-19T00:28:43.765Z,87.13
2022-10-19T00:33:48.288Z,87.24
2022-10-19T00:38:53.459Z,87.28
2022-10-19T00:44:11.871Z,87.15
2022-10-19T00:49:38.993Z,87.10
2022-10-19T00:54:45.775Z,87.07
2022-10-19T01:07:46.708Z,87.09
2022-10-19T01:13:21.098Z,86.99
2022-10-19T01:18:59.154Z,87.04
2022-10-19T01:24:18.328Z,87.11
2022-10-19T01:29:42.692Z,87.22
2022-10-19T01:34:56.014Z,87.32
2022-10-19T01:40:11.120Z,87.40
2022-10-19T01:45:27.571Z,87.32
2022-10-19T01:50:43.804Z,87.31
2022-10-19T01:55:52.135Z,87.15
2022-10-19T02:01:00.534Z,87.10
2022-10-19T02:06:10.027Z,87.09
2022-10-19T02:11:13.782Z,87.11
2022-10-19T02:16:30.478Z,87.08
2022-10-19T02:21:33.777Z,87.11
2022-10-19T02:26:38.710Z,87.19
2022-10-19T02:31:43.152Z,87.25
2022-10-19T02:36:46.585Z,87.22
2022-10-19T02:42:10.381Z,87.25
2022-10-19T02:47:27.495Z,87.19
2022-10-19T02:52:30.930Z,87.11
2022-10-19T02:57:34.382Z,87.17
2022-10-19T03:02:38.092Z,87.20
2022-10-19T03:07:42.553Z,87.24
2022-10-19T03:12:45.890Z,87.39
2022-10-19T03:17:54.076Z,87.39
2022-10-19T03:22:57.377Z,87.42
2022-10-19T03:28:00.765Z,87.57
2022-10-19T03:33:04.169Z,87.61
2022-10-19T03:38:07.658Z,87.64
2022-10-19T03:43:11.058Z,87.58
2022-10-19T03:48:14.427Z,87.56
2022-10-19T03:53:17.717Z,87.46
2022-10-19T03:58:20.957Z,87.50
2022-10-19T04:03:24.334Z,87.60
2022-10-19T04:08:27.701Z,87.54
2022-10-19T04:13:32.391Z,87.52
2022-10-19T04:18:35.717Z,87.53
2022-10-19T04:23:39.303Z,87.56
2022-10-19T04:28:42.806Z,87.53
2022-10-19T04:38:55.128Z,87.45
2022-10-19T04:44:01.796Z,87.57
2022-10-19T04:49:07.007Z,87.53
2022-10-19T04:54:10.569Z,87.39
2022-10-19T04:59:14.086Z,87.36
2022-10-19T05:04:17.500Z,87.35
2022-10-19T05:09:21.247Z,87.49
2022-10-19T05:14:25.182Z,87.64
2022-10-19T05:19:28.486Z,87.71
2022-10-19T05:24:32.788Z,87.67
2022-10-19T05:29:36.105Z,87.87
2022-10-19T05:34:39.416Z,88.28
2022-10-19T05:39:43.293Z,88.30
2022-10-19T05:44:46.656Z,87.64
2022-10-19T05:49:49.929Z,87.58
2022-10-19T05:54:54.308Z,87.57
2022-10-19T05:59:58.640Z,87.49
2022-10-19T06:05:01.955Z,87.38
2022-10-19T06:10:07.970Z,87.28
2022-10-19T06:15:12.257Z,87.13
2022-10-19T06:20:15.566Z,86.96
2022-10-19T06:25:20.342Z,86.86
2022-10-19T06:30:24.407Z,86.61
2022-10-19T06:35:27.789Z,86.41
2022-10-19T06:40:31.095Z,86.18
2022-10-19T06:45:36.024Z,86.14
2022-10-19T06:50:39.431Z,86.01
2022-10-19T06:55:42.674Z,85.87
2022-10-19T07:00:46.050Z,85.82
2022-10-19T07:06:06.825Z,85.58
2022-10-19T07:11:15.617Z,85.39
2022-10-19T07:16:21.079Z,85.07
2022-10-19T07:21:25.002Z,84.82
2022-10-19T07:26:30.724Z,84.52
2022-10-19T07:31:34.188Z,84.47
2022-10-19T07:36:38.116Z,83.05
2022-10-19T07:41:41.450Z,82.80
2022-10-19T07:46:45.567Z,82.50
2022-10-19T07:51:54.163Z,81.39
2022-10-19T07:56:57.652Z,80.50
2022-10-19T08:02:04.790Z,79.87
2022-10-19T08:07:08.769Z,79.10
2022-10-19T08:12:15.151Z,78.03
2022-10-19T08:17:19.049Z,76.99
2022-10-19T08:22:22.764Z,76.36
2022-10-19T08:27:26.933Z,76.14
2022-10-19T08:32:30.394Z,76.13
2022-10-19T08:37:44.186Z,73.36
2022-10-19T08:42:58.024Z,73.37
2022-10-19T08:48:24.171Z,73.69
2022-10-19T08:53:58.657Z,72.25
2022-10-19T08:59:39.514Z,72.47
2022-10-19T09:04:50.499Z,71.11
2022-10-19T09:10:19.363Z,69.83
2022-10-19T09:15:40.337Z,69.04
2022-10-19T09:20:49.629Z,68.54
2022-10-19T09:25:54.126Z,66.76
2022-10-19T09:30:59.421Z,67.41
2022-10-19T09:36:06.827Z,64.59
2022-10-19T09:41:28.848Z,62.87
2022-10-19T09:47:12.966Z,63.22
2022-10-19T09:52:40.900Z,63.69
2022-10-19T09:57:48.614Z,62.73
2022-10-19T10:02:54.876Z,62.78
2022-10-19T10:07:58.671Z,63.69
2022-10-19T10:13:02.791Z,65.18
2022-10-19T10:18:06.492Z,64.94
2022-10-19T10:23:26.435Z,65.31
2022-10-19T10:28:31.579Z,65.46
2022-10-19T10:33:45.050Z,64.28
2022-10-19T10:39:05.371Z,64.36
2022-10-19T10:44:21.291Z,66.17
2022-10-19T10:49:34.441Z,68.64
2022-10-19T10:54:38.702Z,69.32
2022-10-19T11:00:28.981Z,69.74
2022-10-19T11:05:47.911Z,69.25
2022-10-19T11:11:15.332Z,68.26
2022-10-19T11:16:34.313Z,67.04
2022-10-19T11:21:40.577Z,67.08
2022-10-19T11:27:04.494Z,66.47
2022-10-19T11:32:26.165Z,67.06
2022-10-19T11:38:17.329Z,66.20
2022-10-19T11:43:58.647Z,66.15
2022-10-19T11:49:11.000Z,65.89
2022-10-19T11:54:45.382Z,65.29
2022-10-19T12:00:14.111Z,66.50
2022-10-19T12:05:44.908Z,69.50
2022-10-19T12:10:59.395Z,69.28
2022-10-19T12:16:06.186Z,69.65
2022-10-19T12:21:30.384Z,69.05
2022-10-19T12:26:37.232Z,68.50
2022-10-19T12:31:41.626Z,68.39
2022-10-19T12:36:55.038Z,67.74
2022-10-19T12:42:21.944Z,66.81
2022-10-19T12:47:26.240Z,66.21
2022-10-19T12:52:49.738Z,62.70
2022-10-19T12:58:25.398Z,62.03
2022-10-19T13:03:40.793Z,62.64
2022-10-19T13:08:57.012Z,63.71
2022-10-19T13:14:43.014Z,63.35
2022-10-19T13:19:46.383Z,63.68
2022-10-19T13:25:17.734Z,64.26
2022-10-19T13:30:39.141Z,65.14
2022-10-19T13:35:42.545Z,65.29
2022-10-19T13:40:51.696Z,65.25
2022-10-19T13:46:09.446Z,65.77
2022-10-19T13:51:39.074Z,65.44
2022-10-19T13:57:33.995Z,63.88
2022-10-19T14:03:19.376Z,63.85
2022-10-19T14:08:59.978Z,63.18
2022-10-19T14:14:14.712Z,61.95
2022-10-19T14:19:44.259Z,61.24
2022-10-19T14:24:47.701Z,62.10
2022-10-19T14:29:54.193Z,62.42
2022-10-19T14:35:06.619Z,62.63
2022-10-19T14:40:26.501Z,62.60
2022-10-19T14:45:33.064Z,62.37
2022-10-19T14:50:47.792Z,63.59
2022-10-19T14:55:55.798Z,65.06
2022-10-19T15:00:59.417Z,65.64
2022-10-19T15:06:07.734Z,66.24
2022-10-19T15:11:44.849Z,67.54
2022-10-19T15:17:06.234Z,68.87
2022-10-19T15:22:09.493Z,69.40
2022-10-19T15:27:23.772Z,69.78
2022-10-19T15:32:35.932Z,70.11
2022-10-19T15:37:45.014Z,70.67
2022-10-19T15:42:49.468Z,71.03
2022-10-19T15:48:21.868Z,71.64
2022-10-19T15:53:26.400Z,72.04
2022-10-19T15:58:29.816Z,72.75
2022-10-19T16:03:33.127Z,72.78
2022-10-19T16:08:36.593Z,72.72
2022-10-19T16:13:40.163Z,73.20
2022-10-19T16:18:43.524Z,73.51
2022-10-19T16:23:46.994Z,73.78
2022-10-19T16:28:50.283Z,73.85
2022-10-19T16:33:53.618Z,74.07
2022-10-19T16:38:56.921Z,74.33
2022-10-19T16:44:00.159Z,74.50
2022-10-19T16:49:03.445Z,74.72
2022-10-19T16:54:09.982Z,74.65
2022-10-19T16:59:17.133Z,74.81
2022-10-19T17:04:20.545Z,75.04
2022-10-19T17:09:42.228Z,75.07
2022-10-19T17:14:46.321Z,75.29
2022-10-19T17:19:49.654Z,75.39
2022-10-19T17:24:54.375Z,75.68
2022-10-19T17:29:57.786Z,75.83
2022-10-19T17:35:01.057Z,76.28
2022-10-19T17:40:05.848Z,76.26
2022-10-19T17:45:11.455Z,76.44
2022-10-19T17:50:14.920Z,76.79
2022-10-19T17:55:18.500Z,76.79
2022-10-19T18:00:22.041Z,76.88
2022-10-19T18:05:25.372Z,76.93
2022-10-19T18:10:29.063Z,77.24
2022-10-19T18:15:32.467Z,77.25
2022-10-19T18:20:39.898Z,77.65
2022-10-19T18:25:53.969Z,78.13
2022-10-19T18:31:07.431Z,78.17
2022-10-19T18:36:11.354Z,78.26
2022-10-19T18:46:25.965Z,78.57
2022-10-19T18:51:29.960Z,78.64
2022-10-19T18:56:39.448Z,78.86
2022-10-19T19:01:42.914Z,78.88
2022-10-19T19:06:46.359Z,78.74
2022-10-19T19:11:50.321Z,78.54
2022-10-19T19:16:53.720Z,78.46
2022-10-19T19:21:57.258Z,78.42
2022-10-19T19:27:00.574Z,78.55
2022-10-19T19:32:04.886Z,78.60
2022-10-19T19:37:10.467Z,78.59
2022-10-19T19:42:14.686Z,78.39
2022-10-19T19:47:19.737Z,78.40
2022-10-19T19:52:23.046Z,78.41
2022-10-19T19:57:26.461Z,78.33
2022-10-19T20:02:33.012Z,78.47
2022-10-19T20:07:36.685Z,78.96
2022-10-19T20:12:40.181Z,79.40
2022-10-19T20:17:44.545Z,79.83
2022-10-19T20:22:49.630Z,79.88
2022-10-19T20:27:52.982Z,79.96
2022-10-19T20:32:56.293Z,80.13
2022-10-19T20:37:59.606Z,80.18
2022-10-19T20:43:02.916Z,80.29
2022-10-19T20:48:06.634Z,80.26
2022-10-19T20:53:11.820Z,80.31
2022-10-19T20:58:15.108Z,80.35
2022-10-19T21:03:19.930Z,80.60
2022-10-19T21:08:23.277Z,80.54
2022-10-19T21:13:26.679Z,80.49
2022-10-19T21:18:29.906Z,80.41
2022-10-19T21:23:33.199Z,80.17
2022-10-19T21:28:36.764Z,80.07
2022-10-19T21:33:40.445Z,80.00
2022-10-19T21:38:44.540Z,79.97
2022-10-19T21:43:48.295Z,80.00
2022-10-19T21:48:53.136Z,79.96
2022-10-19T21:53:57.066Z,80.06
2022-10-19T21:59:00.759Z,80.19
2022-10-19T22:04:07.067Z,80.33
2022-10-19T22:09:16.725Z,80.41
2022-10-19T22:14:20.239Z,80.56
2022-10-19T22:19:23.553Z,80.54
2022-10-19T22:24:26.863Z,80.53
2022-10-19T22:29:30.127Z,80.48
2022-10-19T22:34:33.371Z,80.75
2022-10-19T22:39:36.860Z,80.82
2022-10-19T22:44:40.209Z,80.83
2022-10-19T22:49:43.562Z,80.90
2022-10-19T22:54:46.968Z,80.90
2022-10-19T22:59:50.248Z,80.93
2022-10-19T23:04:53.873Z,81.00
2022-10-19T23:09:57.078Z,81.23
2022-10-19T23:15:00.316Z,81.27
2022-10-19T23:20:04.006Z,81.33
2022-10-19T23:25:08.658Z,81.60
2022-10-19T23:30:12.165Z,81.69
2022-10-19T23:35:15.787Z,81.72
2022-10-19T23:40:18.993Z,81.84
2022-10-19T23:45:22.306Z,81.99
2022-10-19T23:50:25.925Z,82.21
2022-10-19T23:55:29.235Z,82.25
